createdAt,value
2023-05-13T00:02:21.190Z,6.60
2023-05-13T00:04:48.642Z,7.40
2023-05-13T00:07:16.066Z,6.20
2023-05-13T00:09:43.471Z,6.80
2023-05-13T00:12:10.890Z,7.50
2023-05-13T00:14:38.564Z,7.40
2023-05-13T00:17:05.981Z,8.40
2023-05-13T00:19:33.384Z,7.97
2023-05-13T00:22:00.877Z,8.20
2023-05-13T00:24:28.259Z,7.60
2023-05-13T00:26:55.667Z,7.50
2023-05-13T00:29:23.101Z,8.50
2023-05-13T00:31:51.522Z,7.83
2023-05-13T00:34:19.249Z,7.50
2023-05-13T00:36:46.663Z,8.10
2023-05-13T00:39:14.063Z,7.10
2023-05-13T00:41:41.514Z,7.90
2023-05-13T00:44:08.882Z,9.07
2023-05-13T00:46:36.356Z,7.50
2023-05-13T00:49:05.232Z,8.73
2023-05-13T00:51:32.899Z,8.03
2023-05-13T00:54:00.583Z,8.27
2023-05-13T00:56:27.990Z,7.27
2023-05-13T00:58:55.400Z,7.80
2023-05-13T01:01:24.377Z,8.67
2023-05-13T01:04:10.016Z,8.17
2023-05-13T01:06:38.931Z,8.10
2023-05-13T01:09:11.644Z,6.70
2023-05-13T01:11:40.992Z,7.90
2023-05-13T01:14:12.586Z,7.93
2023-05-13T01:16:56.499Z,8.93
2023-05-13T01:19:25.417Z,6.63
2023-05-13T01:21:53.094Z,8.07
2023-05-13T01:24:20.577Z,8.57
2023-05-13T01:26:48.003Z,8.27
2023-05-13T01:29:15.876Z,6.87
2023-05-13T01:31:43.499Z,8.80
2023-05-13T01:34:12.034Z,7.20
2023-05-13T01:36:40.505Z,8.17
2023-05-13T01:39:08.986Z,9.10
2023-05-13T01:41:36.534Z,7.10
2023-05-13T01:44:04.037Z,7.43
2023-05-13T01:46:31.607Z,7.47
2023-05-13T01:48:59.014Z,8.07
2023-05-13T01:51:26.435Z,7.90
2023-05-13T01:53:53.845Z,8.40
2023-05-13T01:56:22.116Z,7.10
2023-05-13T01:58:49.521Z,7.30
2023-05-13T02:01:16.963Z,8.40
2023-05-13T02:03:44.950Z,8.37
2023-05-13T02:06:12.328Z,7.73
2023-05-13T02:08:39.746Z,9.07
2023-05-13T02:11:07.160Z,8.40
2023-05-13T02:13:34.575Z,9.27
2023-05-13T02:16:02.008Z,8.67
2023-05-13T02:18:29.441Z,8.70
2023-05-13T02:20:57.462Z,8.53
2023-05-13T02:23:24.880Z,9.13
2023-05-13T02:25:52.284Z,8.40
2023-05-13T02:28:19.679Z,9.00
2023-05-13T02:30:47.082Z,9.97
2023-05-13T02:33:14.544Z,10.10
2023-05-13T02:35:42.039Z,8.23
2023-05-13T02:38:12.950Z,9.20
2023-05-13T02:40:40.348Z,7.87
2023-05-13T02:43:07.765Z,8.40
2023-05-13T02:45:35.243Z,9.13
2023-05-13T02:48:02.652Z,8.77
2023-05-13T02:50:30.032Z,8.13
2023-05-13T02:52:57.458Z,10.50
2023-05-13T02:55:25.012Z,7.87
2023-05-13T02:57:52.465Z,8.57
2023-05-13T03:00:20.195Z,7.97
2023-05-13T03:02:47.904Z,7.80
2023-05-13T03:05:15.463Z,7.87
2023-05-13T03:07:43.252Z,6.93
2023-05-13T03:10:10.655Z,7.60
2023-05-13T03:12:38.130Z,7.83
2023-05-13T03:15:05.661Z,8.77
2023-05-13T03:17:33.425Z,8.17
2023-05-13T03:20:00.888Z,8.53
2023-05-13T03:22:28.352Z,7.43
2023-05-13T03:24:55.752Z,8.90
2023-05-13T03:27:23.173Z,9.03
2023-05-13T03:29:50.557Z,8.60
2023-05-13T03:32:17.995Z,8.37
2023-05-13T03:34:45.445Z,9.60
2023-05-13T03:37:12.870Z,11.30
2023-05-13T03:39:40.324Z,8.97
2023-05-13T03:42:07.803Z,10.33
2023-05-13T03:44:35.272Z,9.23
2023-05-13T03:47:02.715Z,10.33
2023-05-13T03:49:30.097Z,9.57
2023-05-13T03:51:57.510Z,9.00
2023-05-13T03:54:24.921Z,11.63
2023-05-13T03:56:52.343Z,9.00
2023-05-13T03:59:19.749Z,9.13
2023-05-13T04:01:47.258Z,9.93
2023-05-13T04:04:14.629Z,12.30
2023-05-13T04:06:42.037Z,8.57
2023-05-13T04:09:09.440Z,9.03
2023-05-13T04:11:36.869Z,8.60
2023-05-13T04:14:04.267Z,10.03
2023-05-13T04:16:31.738Z,8.17
2023-05-13T04:18:59.375Z,8.40
2023-05-13T04:21:26.963Z,7.80
2023-05-13T04:23:54.359Z,8.67
2023-05-13T04:26:21.849Z,10.00
2023-05-13T04:28:49.262Z,8.30
2023-05-13T04:31:16.711Z,8.70
2023-05-13T04:33:45.044Z,10.27
2023-05-13T04:36:14.357Z,8.80
2023-05-13T04:38:41.456Z,9.80
2023-05-13T04:41:08.841Z,9.30
2023-05-13T04:43:36.323Z,9.00
2023-05-13T04:46:03.754Z,10.80
2023-05-13T04:48:31.161Z,10.57
2023-05-13T04:50:59.067Z,8.53
2023-05-13T04:53:26.907Z,9.17
2023-05-13T04:55:55.940Z,9.87
2023-05-13T04:58:23.338Z,9.67
2023-05-13T05:00:50.730Z,9.50
2023-05-13T05:03:18.162Z,10.00
2023-05-13T05:05:45.556Z,9.30
2023-05-13T05:08:12.975Z,10.10
2023-05-13T05:10:40.476Z,9.60
2023-05-13T05:13:07.906Z,8.70
2023-05-13T05:15:35.278Z,7.80
2023-05-13T05:18:02.811Z,9.70
2023-05-13T05:20:30.300Z,8.60
2023-05-13T05:22:57.695Z,8.10
2023-05-13T05:25:25.180Z,8.90
2023-05-13T05:27:52.616Z,9.10
2023-05-13T05:30:20.230Z,9.67
2023-05-13T05:32:47.903Z,8.87
2023-05-13T05:35:16.707Z,9.17
2023-05-13T05:37:44.093Z,9.00
2023-05-13T05:40:11.631Z,7.53
2023-05-13T05:42:39.042Z,9.00
2023-05-13T05:45:06.612Z,9.30
2023-05-13T05:47:34.106Z,8.33
2023-05-13T05:50:01.532Z,9.20
2023-05-13T05:52:28.919Z,8.10
2023-05-13T05:54:56.330Z,8.70
2023-05-13T05:57:23.740Z,8.63
2023-05-13T05:59:51.632Z,7.40
2023-05-13T06:02:19.054Z,9.13
2023-05-13T06:04:46.460Z,9.60
2023-05-13T06:07:13.937Z,8.13
2023-05-13T06:09:41.291Z,7.13
2023-05-13T06:12:08.676Z,8.17
2023-05-13T06:14:36.048Z,7.47
2023-05-13T06:17:03.470Z,8.17
2023-05-13T06:19:30.862Z,8.03
2023-05-13T06:21:58.286Z,7.30
2023-05-13T06:24:25.934Z,7.10
2023-05-13T06:26:53.339Z,6.97
2023-05-13T06:29:20.707Z,6.70
2023-05-13T06:31:48.194Z,6.83
2023-05-13T06:34:16.930Z,7.00
2023-05-13T06:36:44.561Z,6.87
2023-05-13T06:39:12.739Z,6.70
2023-05-13T06:41:42.611Z,6.67
2023-05-13T06:44:10.064Z,5.33
2023-05-13T06:46:37.561Z,5.67
2023-05-13T06:49:05.037Z,5.10
2023-05-13T06:51:33.680Z,3.93
2023-05-13T06:54:01.318Z,4.20
2023-05-13T06:56:29.672Z,4.17
2023-05-13T06:58:57.061Z,3.77
2023-05-13T07:01:24.503Z,4.00
2023-05-13T07:03:51.870Z,3.87
2023-05-13T07:06:19.310Z,3.77
2023-05-13T07:08:46.701Z,3.90
2023-05-13T07:11:14.088Z,3.77
2023-05-13T07:13:41.452Z,3.33
2023-05-13T07:16:08.843Z,4.07
2023-05-13T07:18:36.287Z,4.60
2023-05-13T07:21:03.760Z,4.10
2023-05-13T07:23:31.294Z,4.10
2023-05-13T07:25:58.690Z,3.57
2023-05-13T07:28:26.043Z,3.23
2023-05-13T07:30:53.492Z,3.90
2023-05-13T07:33:20.910Z,3.10
2023-05-13T07:35:48.651Z,3.00
2023-05-13T07:38:16.220Z,3.17
2023-05-13T07:40:43.531Z,3.77
2023-05-13T07:43:11.606Z,3.43
2023-05-13T07:45:39.072Z,3.10
2023-05-13T07:48:07.227Z,3.10
2023-05-13T07:50:34.581Z,3.27
2023-05-13T07:53:03.324Z,2.73
2023-05-13T07:55:31.188Z,2.77
2023-05-13T07:57:58.634Z,2.97
2023-05-13T08:00:26.037Z,3.60
2023-05-13T08:02:53.479Z,3.67
2023-05-13T08:05:21.016Z,3.50
2023-05-13T08:07:48.585Z,3.53
2023-05-13T08:10:15.965Z,4.03
2023-05-13T08:12:44.151Z,3.47
2023-05-13T08:15:24.989Z,3.73
2023-05-13T08:17:43.488Z,3.10
2023-05-13T08:20:11.301Z,3.53
2023-05-13T08:22:38.671Z,3.13
2023-05-13T08:25:06.237Z,3.30
2023-05-13T08:27:34.489Z,3.10
2023-05-13T08:30:01.854Z,2.97
2023-05-13T08:32:29.298Z,3.07
2023-05-13T08:34:56.649Z,3.03
2023-05-13T08:37:24.040Z,3.20
2023-05-13T08:39:51.436Z,2.70
2023-05-13T08:42:21.453Z,2.80
2023-05-13T08:44:49.489Z,3.00
2023-05-13T08:47:24.264Z,3.20
2023-05-13T08:49:52.289Z,3.17
2023-05-13T08:52:19.690Z,2.87
2023-05-13T08:54:47.924Z,3.10
2023-05-13T08:57:15.317Z,2.90
2023-05-13T08:59:42.683Z,3.73
2023-05-13T09:02:10.545Z,3.00
2023-05-13T09:04:41.162Z,2.70
2023-05-13T09:07:09.310Z,3.63
2023-05-13T09:09:36.748Z,3.43
2023-05-13T09:12:04.264Z,3.30
2023-05-13T09:14:32.480Z,2.67
2023-05-13T09:17:00.041Z,2.90
2023-05-13T09:19:27.543Z,2.60
2023-05-13T09:21:55.635Z,2.80
2023-05-13T09:24:23.799Z,2.73
2023-05-13T09:26:51.994Z,2.67
2023-05-13T09:29:26.391Z,2.83
2023-05-13T09:31:55.067Z,3.07
2023-05-13T09:34:23.932Z,2.73
2023-05-13T09:36:52.914Z,2.57
2023-05-13T09:39:20.311Z,2.63
2023-05-13T09:41:47.696Z,3.23
2023-05-13T09:44:15.721Z,2.80
2023-05-13T09:46:43.696Z,2.60
2023-05-13T09:49:11.128Z,2.90
2023-05-13T09:51:38.508Z,3.33
2023-05-13T09:54:06.555Z,3.50
2023-05-13T09:56:36.163Z,2.73
2023-05-13T09:59:04.351Z,2.73
2023-05-13T10:01:31.791Z,3.13
2023-05-13T10:03:59.323Z,2.90
2023-05-13T10:06:28.005Z,2.73
2023-05-13T10:08:56.913Z,3.37
2023-05-13T10:11:24.692Z,3.00
2023-05-13T10:13:54.771Z,3.40
2023-05-13T10:16:23.860Z,3.40
2023-05-13T10:18:51.804Z,2.97
2023-05-13T10:21:19.737Z,3.10
2023-05-13T10:23:47.676Z,3.03
2023-05-13T10:26:15.191Z,3.30
2023-05-13T10:28:43.503Z,3.33
2023-05-13T10:31:10.890Z,3.40
2023-05-13T10:33:38.297Z,3.50
2023-05-13T10:36:25.688Z,4.33
2023-05-13T10:39:11.242Z,3.70
2023-05-13T10:41:40.163Z,3.90
2023-05-13T10:44:09.307Z,3.07
2023-05-13T10:46:38.358Z,3.30
2023-05-13T10:49:06.784Z,3.70
2023-05-13T10:51:34.173Z,3.50
2023-05-13T10:54:01.703Z,3.80
2023-05-13T10:56:29.277Z,4.10
2023-05-13T10:59:00.311Z,3.03
2023-05-13T11:01:29.677Z,3.17
2023-05-13T11:04:04.540Z,3.23
2023-05-13T11:06:36.629Z,3.83
2023-05-13T11:09:08.533Z,3.73
2023-05-13T11:11:36.402Z,3.17
2023-05-13T11:14:06.592Z,3.10
2023-05-13T11:16:35.058Z,3.17
2023-05-13T11:19:03.268Z,3.20
2023-05-13T11:21:31.625Z,3.17
2023-05-13T11:24:00.507Z,3.40
2023-05-13T11:26:29.380Z,3.43
2023-05-13T11:29:01.378Z,3.80
2023-05-13T11:31:29.782Z,3.13
2023-05-13T11:34:07.226Z,3.53
2023-05-13T11:36:35.257Z,4.60
2023-05-13T11:39:10.458Z,3.47
2023-05-13T11:41:38.910Z,3.23
2023-05-13T11:44:07.063Z,3.23
2023-05-13T11:46:34.915Z,3.27
2023-05-13T11:49:02.287Z,3.50
2023-05-13T11:51:31.713Z,3.10
2023-05-13T11:54:03.350Z,2.90
2023-05-13T11:56:30.976Z,3.00
2023-05-13T11:58:59.913Z,2.97
2023-05-13T12:01:27.452Z,3.47
2023-05-13T12:03:56.418Z,3.50
2023-05-13T12:06:23.778Z,3.10
2023-05-13T12:08:51.159Z,3.50
2023-05-13T12:11:18.536Z,2.57
2023-05-13T12:13:46.252Z,2.73
2023-05-13T12:16:14.439Z,3.00
2023-05-13T12:18:41.918Z,2.70
2023-05-13T12:21:16.953Z,2.77
2023-05-13T12:23:44.418Z,3.10
2023-05-13T12:26:12.457Z,3.10
2023-05-13T12:28:39.855Z,3.20
2023-05-13T12:31:07.290Z,3.13
2023-05-13T12:33:36.924Z,3.40
2023-05-13T12:36:21.377Z,3.10
2023-05-13T12:39:00.701Z,3.20
2023-05-13T12:41:30.427Z,3.10
2023-05-13T12:43:58.534Z,3.00
2023-05-13T12:46:26.084Z,3.43
2023-05-13T12:48:55.009Z,3.37
2023-05-13T12:51:22.681Z,3.20
2023-05-13T12:53:50.087Z,3.53
2023-05-13T12:56:17.579Z,2.90
2023-05-13T12:58:44.959Z,2.97
2023-05-13T13:01:12.475Z,3.23
2023-05-13T13:03:40.235Z,2.80
2023-05-13T13:06:07.660Z,3.10
2023-05-13T13:08:35.821Z,3.10
2023-05-13T13:11:04.152Z,2.70
2023-05-13T13:13:32.278Z,3.10
2023-05-13T13:16:02.610Z,3.63
2023-05-13T13:18:29.993Z,3.90
2023-05-13T13:20:57.330Z,3.30
2023-05-13T13:23:24.740Z,3.47
2023-05-13T13:25:52.131Z,3.10
2023-05-13T13:28:19.512Z,2.87
2023-05-13T13:30:47.261Z,2.50
2023-05-13T13:33:15.406Z,2.60
2023-05-13T13:35:46.786Z,2.37
2023-05-13T13:38:14.440Z,2.20
2023-05-13T13:40:42.787Z,2.50
2023-05-13T13:43:10.164Z,2.07
2023-05-13T13:45:37.546Z,2.30
2023-05-13T13:48:05.100Z,1.83
2023-05-13T13:50:32.447Z,2.30
2023-05-13T13:52:59.837Z,2.10
2023-05-13T13:55:27.383Z,2.13
2023-05-13T13:57:54.820Z,1.97
2023-05-13T14:00:22.397Z,2.10
2023-05-13T14:02:50.077Z,1.90
2023-05-13T14:05:17.580Z,1.90
2023-05-13T14:07:46.136Z,1.90
2023-05-13T14:10:13.496Z,1.90
2023-05-13T14:12:40.877Z,1.90
2023-05-13T14:15:08.536Z,1.80
2023-05-13T14:17:35.958Z,1.93
2023-05-13T14:20:03.523Z,2.00
2023-05-13T14:22:30.914Z,2.27
2023-05-13T14:24:59.468Z,2.20
2023-05-13T14:27:26.835Z,2.20
2023-05-13T14:29:54.231Z,2.60
2023-05-13T14:32:21.545Z,1.60
2023-05-13T14:34:48.912Z,2.13
2023-05-13T14:37:16.233Z,2.40
2023-05-13T14:39:43.641Z,2.23
2023-05-13T14:42:12.700Z,2.30
2023-05-13T14:44:45.378Z,2.00
2023-05-13T14:47:13.023Z,1.93
2023-05-13T14:49:44.989Z,2.30
2023-05-13T14:52:14.235Z,2.10
2023-05-13T14:54:41.600Z,2.40
2023-05-13T14:57:09.183Z,2.33
2023-05-13T14:59:36.863Z,2.43
2023-05-13T15:02:04.925Z,2.50
2023-05-13T15:04:32.395Z,2.40
2023-05-13T15:06:59.902Z,2.37
2023-05-13T15:09:27.221Z,2.50
2023-05-13T15:11:57.123Z,2.60
2023-05-13T15:14:25.971Z,2.47
2023-05-13T15:16:54.052Z,2.30
2023-05-13T15:19:21.477Z,3.03
2023-05-13T15:21:48.850Z,2.60
2023-05-13T15:24:16.244Z,2.20
2023-05-13T15:26:43.615Z,2.60
2023-05-13T15:29:10.938Z,2.83
2023-05-13T15:31:38.342Z,2.40
2023-05-13T15:34:05.712Z,2.20
2023-05-13T15:36:35.117Z,2.77
2023-05-13T15:39:02.804Z,2.40
2023-05-13T15:41:30.291Z,2.27
2023-05-13T15:43:57.673Z,2.20
2023-05-13T15:46:26.094Z,2.20
2023-05-13T15:48:53.502Z,2.77
2023-05-13T15:51:21.012Z,2.60
2023-05-13T15:53:48.338Z,2.20
2023-05-13T15:56:15.714Z,2.67
2023-05-13T15:58:43.037Z,2.57
2023-05-13T16:01:10.389Z,2.60
2023-05-13T16:03:38.672Z,2.10
2023-05-13T16:06:06.231Z,2.30
2023-05-13T16:08:33.611Z,2.73
2023-05-13T16:11:01.008Z,2.10
2023-05-13T16:13:28.376Z,2.90
2023-05-13T16:15:56.019Z,2.50
2023-05-13T16:18:24.733Z,3.27
2023-05-13T16:20:52.485Z,3.23
2023-05-13T16:23:19.866Z,2.77
2023-05-13T16:25:47.287Z,3.37
2023-05-13T16:28:14.628Z,2.80
2023-05-13T16:30:42.382Z,3.93
2023-05-13T16:33:09.818Z,4.53
2023-05-13T16:35:37.227Z,5.20
2023-05-13T16:38:04.615Z,4.27
2023-05-13T16:40:32.004Z,3.87
2023-05-13T16:43:02.522Z,3.70
2023-05-13T16:45:28.335Z,3.57
2023-05-13T16:47:55.768Z,3.20
2023-05-13T16:50:23.315Z,3.00
2023-05-13T16:52:50.973Z,2.70
2023-05-13T16:55:18.357Z,2.80
2023-05-13T16:57:46.609Z,3.10
2023-05-13T17:00:14.404Z,3.00
2023-05-13T17:02:42.593Z,2.80
2023-05-13T17:05:10.065Z,3.03
2023-05-13T17:07:37.517Z,2.80
2023-05-13T17:10:05.094Z,3.10
2023-05-13T17:12:32.654Z,2.87
2023-05-13T17:15:00.052Z,2.90
2023-05-13T17:17:27.521Z,2.70
2023-05-13T17:19:54.869Z,3.10
2023-05-13T17:22:22.272Z,2.90
2023-05-13T17:24:49.709Z,3.33
2023-05-13T17:27:17.108Z,3.03
2023-05-13T17:29:44.612Z,2.70
2023-05-13T17:32:12.004Z,2.90
2023-05-13T17:34:39.563Z,2.93
2023-05-13T17:37:06.991Z,2.60
2023-05-13T17:39:34.426Z,3.20
2023-05-13T17:42:01.827Z,3.63
2023-05-13T17:44:29.322Z,2.70
2023-05-13T17:46:56.791Z,3.10
2023-05-13T17:49:24.223Z,2.50
2023-05-13T17:51:51.647Z,2.33
2023-05-13T17:54:19.051Z,3.13
2023-05-13T17:56:46.455Z,2.87
2023-05-13T17:59:13.835Z,2.90
2023-05-13T18:01:41.256Z,2.90
2023-05-13T18:04:08.622Z,2.90
2023-05-13T18:06:36.777Z,3.10
2023-05-13T18:09:04.262Z,3.07
2023-05-13T18:11:31.623Z,3.17
2023-05-13T18:13:59.051Z,3.53
2023-05-13T18:16:26.495Z,3.27
2023-05-13T18:18:54.017Z,3.20
2023-05-13T18:21:22.991Z,3.23
2023-05-13T18:23:50.400Z,3.47
2023-05-13T18:26:17.799Z,3.90
2023-05-13T18:28:45.272Z,3.90
2023-05-13T18:31:12.735Z,3.73
2023-05-13T18:33:40.146Z,3.70
2023-05-13T18:36:09.304Z,3.73
2023-05-13T18:38:36.680Z,3.80
2023-05-13T18:41:04.775Z,3.73
2023-05-13T18:43:32.460Z,3.60
2023-05-13T18:46:00.124Z,4.07
2023-05-13T18:48:27.720Z,4.17
2023-05-13T18:50:55.131Z,3.73
2023-05-13T18:53:22.522Z,4.10
2023-05-13T18:55:49.945Z,4.30
2023-05-13T18:58:17.348Z,3.77
2023-05-13T19:00:44.764Z,3.93
2023-05-13T19:03:12.298Z,3.90
2023-05-13T19:05:39.870Z,4.17
2023-05-13T19:08:07.851Z,3.60
2023-05-13T19:10:39.629Z,4.03
2023-05-13T19:13:05.875Z,3.20
2023-05-13T19:15:33.643Z,3.80
2023-05-13T19:18:01.215Z,3.40
2023-05-13T19:20:29.326Z,2.93
2023-05-13T19:22:56.980Z,3.60
2023-05-13T19:25:24.426Z,4.03
2023-05-13T19:27:51.817Z,3.30
2023-05-13T19:30:19.333Z,3.70
2023-05-13T19:32:46.809Z,3.40
2023-05-13T19:35:14.216Z,3.70
2023-05-13T19:37:41.591Z,3.10
2023-05-13T19:40:09.200Z,3.60
2023-05-13T19:42:36.686Z,4.03
2023-05-13T19:45:07.656Z,3.53
2023-05-13T19:47:35.191Z,3.60
2023-05-13T19:50:02.910Z,3.40
2023-05-13T19:52:30.703Z,4.30
2023-05-13T19:54:58.482Z,3.90
2023-05-13T19:57:28.026Z,3.50
2023-05-13T19:59:55.144Z,4.20
2023-05-13T20:02:22.604Z,3.83
2023-05-13T20:04:50.101Z,4.20
2023-05-13T20:07:18.064Z,3.90
2023-05-13T20:09:46.040Z,4.20
2023-05-13T20:12:13.427Z,4.20
2023-05-13T20:14:44.540Z,4.77
2023-05-13T20:17:13.492Z,3.90
2023-05-13T20:19:42.390Z,4.50
2023-05-13T20:22:09.951Z,4.23
2023-05-13T20:24:37.357Z,4.03
2023-05-13T20:27:04.802Z,4.07
2023-05-13T20:29:35.790Z,3.90
2023-05-13T20:32:03.903Z,4.10
2023-05-13T20:34:31.703Z,4.70
2023-05-13T20:36:59.108Z,4.77
2023-05-13T20:39:27.330Z,4.43
2023-05-13T20:41:55.406Z,4.87
2023-05-13T20:44:23.413Z,4.23
2023-05-13T20:46:50.978Z,4.73
2023-05-13T20:49:18.381Z,4.67
2023-05-13T20:51:47.381Z,4.30
2023-05-13T20:54:15.179Z,5.30
2023-05-13T20:56:42.637Z,4.50
2023-05-13T20:59:10.192Z,4.17
2023-05-13T21:01:37.573Z,5.00
2023-05-13T21:04:06.395Z,4.90
2023-05-13T21:06:33.862Z,4.23
2023-05-13T21:09:01.457Z,4.07
2023-05-13T21:11:28.833Z,5.40
2023-05-13T21:13:56.304Z,4.50
2023-05-13T21:16:23.756Z,4.97
2023-05-13T21:21:29.349Z,5.50
2023-05-13T21:23:56.719Z,4.10
2023-05-13T21:26:25.775Z,3.90
2023-05-13T21:28:53.163Z,4.93
2023-05-13T21:31:20.630Z,4.63
2023-05-13T21:33:48.872Z,4.90
2023-05-13T21:36:16.326Z,4.90
2023-05-13T21:38:43.701Z,4.77
2023-05-13T21:41:11.114Z,5.17
2023-05-13T21:43:38.483Z,4.77
2023-05-13T21:46:06.517Z,4.43
2023-05-13T21:48:33.966Z,5.50
2023-05-13T21:51:01.407Z,4.00
2023-05-13T21:53:29.209Z,4.80
2023-05-13T21:55:58.241Z,3.83
2023-05-13T21:58:25.642Z,4.13
2023-05-13T22:00:53.647Z,4.10
2023-05-13T22:03:21.107Z,4.63
2023-05-13T22:05:48.504Z,4.10
2023-05-13T22:08:15.897Z,3.93
2023-05-13T22:10:43.375Z,4.27
2023-05-13T22:13:10.822Z,3.80
2023-05-13T22:15:38.215Z,3.70
2023-05-13T22:18:05.866Z,3.73
2023-05-13T22:20:33.347Z,3.87
2023-05-13T22:23:00.789Z,4.17
2023-05-13T22:25:28.110Z,4.20
2023-05-13T22:27:55.664Z,4.30
2023-05-13T22:30:23.440Z,4.27
2023-05-13T22:32:51.831Z,4.00
2023-05-13T22:35:19.174Z,3.87
2023-05-13T22:37:46.525Z,3.30
2023-05-13T22:40:14.052Z,3.90
2023-05-13T22:42:41.421Z,3.90
2023-05-13T22:45:09.057Z,3.77
2023-05-13T22:47:39.653Z,3.80
2023-05-13T22:50:07.317Z,3.30
2023-05-13T22:52:34.701Z,4.80
2023-05-13T22:55:02.070Z,4.17
2023-05-13T22:57:30.363Z,4.53
2023-05-13T22:59:57.703Z,4.33
2023-05-13T23:02:25.091Z,4.23
2023-05-13T23:04:52.832Z,3.93
2023-05-13T23:07:20.198Z,4.83
2023-05-13T23:09:47.542Z,4.30
2023-05-13T23:12:14.903Z,4.53
2023-05-13T23:14:42.318Z,4.40
2023-05-13T23:17:09.690Z,4.10
2023-05-13T23:19:38.087Z,4.20
2023-05-13T23:22:05.511Z,4.90
2023-05-13T23:24:32.924Z,4.50
2023-05-13T23:27:00.328Z,4.00
2023-05-13T23:29:27.772Z,4.37
2023-05-13T23:31:55.434Z,4.60
2023-05-13T23:34:23.088Z,3.90
2023-05-13T23:36:50.480Z,4.37
2023-05-13T23:39:18.363Z,4.37
2023-05-13T23:41:45.722Z,4.60
2023-05-13T23:44:13.379Z,4.90
2023-05-13T23:46:40.858Z,4.40
2023-05-13T23:49:08.234Z,3.97
2023-05-13T23:51:35.685Z,4.07
2023-05-13T23:54:03.057Z,4.87
2023-05-13T23:56:30.372Z,4.93
2023-05-13T23:58:57.774Z,5.00
